createdAt,value
2022-11-26T00:02:19.394Z,57.30
2022-11-26T00:04:46.454Z,57.28
2022-11-26T00:07:16.251Z,57.03
2022-11-26T00:09:43.360Z,57.20
2022-11-26T00:12:20.222Z,57.11
2022-11-26T00:14:47.972Z,56.59
2022-11-26T00:17:16.290Z,56.30
2022-11-26T00:19:44.842Z,56.89
2022-11-26T00:22:29.067Z,57.12
2022-11-26T00:24:56.701Z,57.64
2022-11-26T00:27:27.069Z,57.67
2022-11-26T00:29:54.706Z,58.13
2022-11-26T00:32:24.387Z,57.70
2022-11-26T00:34:51.901Z,57.53
2022-11-26T00:37:23.795Z,56.53
2022-11-26T00:39:51.671Z,57.12
2022-11-26T00:42:19.131Z,57.33
2022-11-26T00:44:46.372Z,57.48
2022-11-26T00:47:13.427Z,57.99
2022-11-26T00:49:40.367Z,57.99
2022-11-26T00:52:40.871Z,57.13
2022-11-26T00:55:17.461Z,57.16
2022-11-26T00:57:44.407Z,57.47
2022-11-26T01:00:20.244Z,57.70
2022-11-26T01:02:47.822Z,57.47
2022-11-26T01:05:15.505Z,57.36
2022-11-26T01:07:43.703Z,56.99
2022-11-26T01:10:18.497Z,56.99
2022-11-26T01:12:45.735Z,56.40
2022-11-26T01:15:14.082Z,56.03
2022-11-26T01:17:41.760Z,56.28
2022-11-26T01:20:31.992Z,56.57
2022-11-26T01:22:59.128Z,56.13
2022-11-26T01:25:27.108Z,56.44
2022-11-26T01:27:54.415Z,56.83
2022-11-26T01:30:25.321Z,56.51
2022-11-26T01:32:52.600Z,56.35
2022-11-26T01:35:21.448Z,56.41
2022-11-26T01:37:49.871Z,56.51
2022-11-26T01:40:32.759Z,56.52
2022-11-26T01:43:06.644Z,55.91
2022-11-26T01:45:33.609Z,55.80
2022-11-26T01:48:00.556Z,56.25
2022-11-26T01:50:33.560Z,56.20
2022-11-26T01:53:32.671Z,56.21
2022-11-26T01:56:04.174Z,56.38
2022-11-26T01:58:39.914Z,55.98
2022-11-26T02:01:07.698Z,56.43
2022-11-26T02:03:41.365Z,55.38
2022-11-26T02:06:16.282Z,55.67
2022-11-26T02:08:43.686Z,55.99
2022-11-26T02:11:23.239Z,55.67
2022-11-26T02:13:54.113Z,55.77
2022-11-26T02:16:27.703Z,55.86
2022-11-26T02:19:09.982Z,56.38
2022-11-26T02:21:40.939Z,55.89
2022-11-26T02:24:33.843Z,55.78
2022-11-26T02:27:29.729Z,55.50
2022-11-26T02:30:07.295Z,55.43
2022-11-26T02:32:47.224Z,55.92
2022-11-26T02:35:31.560Z,55.66
2022-11-26T02:38:05.365Z,55.75
2022-11-26T02:40:32.398Z,55.93
2022-11-26T02:42:59.312Z,55.68
2022-11-26T02:45:34.237Z,55.44
2022-11-26T02:48:06.318Z,56.04
2022-11-26T02:50:35.424Z,55.69
2022-11-26T02:53:03.531Z,55.80
2022-11-26T02:55:34.691Z,54.98
2022-11-26T02:58:02.517Z,55.74
2022-11-26T03:00:31.455Z,55.32
2022-11-26T03:02:58.358Z,55.72
2022-11-26T03:05:27.370Z,55.41
2022-11-26T03:07:55.378Z,54.80
2022-11-26T03:10:29.526Z,55.11
2022-11-26T03:12:56.468Z,55.06
2022-11-26T03:15:24.012Z,55.07
2022-11-26T03:17:51.254Z,55.19
2022-11-26T03:20:18.436Z,55.36
2022-11-26T03:22:45.899Z,55.13
2022-11-26T03:25:13.738Z,55.01
2022-11-26T03:27:40.978Z,54.75
2022-11-26T03:30:08.678Z,54.85
2022-11-26T03:32:36.123Z,55.19
2022-11-26T03:35:03.795Z,54.86
2022-11-26T03:37:30.742Z,54.78
2022-11-26T03:39:57.723Z,55.00
2022-11-26T03:42:24.744Z,55.10
2022-11-26T03:44:51.835Z,55.32
2022-11-26T03:47:18.985Z,55.30
2022-11-26T03:49:46.000Z,55.03
2022-11-26T03:52:13.281Z,55.47
2022-11-26T03:54:40.565Z,55.38
2022-11-26T03:57:07.832Z,55.44
2022-11-26T03:59:34.755Z,55.60
2022-11-26T04:02:01.965Z,55.33
2022-11-26T04:04:29.363Z,54.95
2022-11-26T04:06:56.301Z,55.35
2022-11-26T04:09:23.812Z,54.58
2022-11-26T04:11:50.888Z,54.63
2022-11-26T04:14:18.072Z,55.56
2022-11-26T04:16:45.238Z,55.77
2022-11-26T04:19:12.162Z,55.85
2022-11-26T04:21:39.141Z,56.17
2022-11-26T04:24:06.356Z,55.97
2022-11-26T04:26:33.231Z,55.63
2022-11-26T04:29:00.358Z,55.71
2022-11-26T04:31:27.333Z,55.83
2022-11-26T04:33:54.222Z,55.18
2022-11-26T04:36:21.076Z,55.62
2022-11-26T04:38:48.096Z,56.02
2022-11-26T04:41:15.180Z,56.00
2022-11-26T04:43:42.061Z,56.24
2022-11-26T04:46:09.044Z,55.74
2022-11-26T04:48:36.241Z,55.57
2022-11-26T04:51:03.081Z,55.12
2022-11-26T04:53:30.033Z,54.97
2022-11-26T04:55:57.028Z,54.74
2022-11-26T04:58:23.997Z,54.97
2022-11-26T05:00:51.610Z,54.85
2022-11-26T05:03:19.762Z,54.66
2022-11-26T05:05:47.380Z,55.52
2022-11-26T05:08:14.647Z,55.51
2022-11-26T05:10:41.889Z,54.83
2022-11-26T05:13:08.974Z,55.22
2022-11-26T05:15:35.964Z,55.74
2022-11-26T05:18:03.002Z,55.67
2022-11-26T05:20:29.850Z,55.89
2022-11-26T05:22:56.708Z,55.76
2022-11-26T05:25:23.628Z,55.63
2022-11-26T05:27:50.523Z,55.57
2022-11-26T05:30:17.441Z,55.70
2022-11-26T05:32:44.811Z,55.99
2022-11-26T05:35:11.797Z,56.11
2022-11-26T05:37:38.797Z,55.72
2022-11-26T05:40:06.873Z,56.22
2022-11-26T05:42:33.822Z,55.83
2022-11-26T05:45:00.845Z,55.48
2022-11-26T05:47:27.796Z,55.69
2022-11-26T05:49:54.836Z,55.89
2022-11-26T05:52:21.850Z,55.37
2022-11-26T05:54:48.902Z,55.78
2022-11-26T05:57:15.903Z,56.23
2022-11-26T05:59:42.848Z,55.59
2022-11-26T06:02:09.878Z,56.20
2022-11-26T06:04:37.061Z,56.29
2022-11-26T06:07:04.243Z,56.25
2022-11-26T06:09:31.246Z,57.59
2022-11-26T06:11:58.068Z,57.54
2022-11-26T06:14:25.039Z,57.95
2022-11-26T06:16:51.967Z,57.98
2022-11-26T06:19:18.964Z,58.52
2022-11-26T06:21:46.191Z,58.58
2022-11-26T06:24:13.089Z,58.99
2022-11-26T06:26:40.451Z,58.82
2022-11-26T06:29:07.404Z,58.93
2022-11-26T06:31:34.528Z,58.53
2022-11-26T06:34:02.427Z,58.47
2022-11-26T06:36:29.380Z,58.98
2022-11-26T06:38:56.331Z,58.93
2022-11-26T06:41:23.337Z,56.21
2022-11-26T06:43:50.598Z,57.47
2022-11-26T06:46:17.749Z,55.90
2022-11-26T06:48:44.686Z,55.13
2022-11-26T06:51:17.394Z,55.01
2022-11-26T06:53:47.045Z,55.73
2022-11-26T06:56:18.869Z,55.98
2022-11-26T06:58:50.703Z,54.72
2022-11-26T07:01:26.550Z,55.83
2022-11-26T07:03:54.148Z,54.20
2022-11-26T07:06:23.674Z,54.41
2022-11-26T07:08:52.208Z,55.19
2022-11-26T07:11:19.579Z,53.10
2022-11-26T07:13:46.723Z,53.83
2022-11-26T07:16:14.509Z,54.27
2022-11-26T07:18:41.774Z,54.64
2022-11-26T07:21:11.370Z,53.75
2022-11-26T07:23:39.390Z,51.94
2022-11-26T07:26:07.487Z,50.85
2022-11-26T07:28:35.300Z,51.51
2022-11-26T07:31:04.793Z,54.87
2022-11-26T07:33:31.785Z,54.23
2022-11-26T07:36:03.449Z,53.94
2022-11-26T07:38:31.067Z,52.77
2022-11-26T07:41:09.709Z,53.18
2022-11-26T07:43:38.413Z,49.64
2022-11-26T07:46:07.120Z,51.85
2022-11-26T07:48:34.671Z,51.89
2022-11-26T07:51:03.440Z,54.09
2022-11-26T07:53:32.244Z,51.87
2022-11-26T07:55:59.503Z,54.46
2022-11-26T07:58:27.089Z,55.53
2022-11-26T08:00:54.911Z,54.00
2022-11-26T08:03:22.273Z,51.13
2022-11-26T08:05:49.148Z,51.29
2022-11-26T08:08:16.063Z,50.56
2022-11-26T08:10:43.727Z,50.10
2022-11-26T08:13:10.892Z,48.77
2022-11-26T08:15:37.976Z,50.97
2022-11-26T08:18:05.059Z,52.11
2022-11-26T08:20:31.949Z,52.31
2022-11-26T08:22:58.941Z,53.75
2022-11-26T08:25:25.986Z,54.24
2022-11-26T08:27:53.003Z,54.01
2022-11-26T08:30:19.981Z,50.87
2022-11-26T08:32:47.114Z,51.76
2022-11-26T08:35:14.187Z,51.51
2022-11-26T08:37:42.675Z,51.47
2022-11-26T08:40:11.954Z,51.63
2022-11-26T08:42:40.812Z,50.34
2022-11-26T08:45:08.176Z,50.26
2022-11-26T08:47:35.155Z,50.27
2022-11-26T08:50:05.112Z,47.95
2022-11-26T08:52:32.003Z,48.96
2022-11-26T08:54:58.912Z,49.75
2022-11-26T08:57:25.912Z,50.78
2022-11-26T08:59:55.178Z,47.89
2022-11-26T09:02:23.585Z,48.95
2022-11-26T09:04:50.541Z,46.26
2022-11-26T09:07:17.657Z,47.45
2022-11-26T09:09:44.983Z,50.27
2022-11-26T09:12:12.156Z,51.49
2022-11-26T09:14:40.633Z,50.67
2022-11-26T09:17:10.054Z,51.77
2022-11-26T09:19:37.255Z,51.03
2022-11-26T09:22:04.429Z,50.90
2022-11-26T09:24:31.702Z,50.09
2022-11-26T09:27:02.779Z,49.80
2022-11-26T09:29:33.088Z,47.07
2022-11-26T09:32:22.764Z,50.63
2022-11-26T09:34:48.282Z,51.35
2022-11-26T09:37:15.238Z,49.41
2022-11-26T09:39:42.165Z,50.73
2022-11-26T09:42:29.893Z,50.88
2022-11-26T09:44:59.696Z,49.74
2022-11-26T09:47:29.017Z,48.68
2022-11-26T09:49:55.936Z,48.37
2022-11-26T09:52:26.199Z,47.85
2022-11-26T09:55:02.944Z,45.98
2022-11-26T09:57:40.888Z,43.62
2022-11-26T10:00:22.569Z,42.99
2022-11-26T10:02:52.585Z,40.96
2022-11-26T10:05:22.521Z,42.82
2022-11-26T10:08:18.687Z,39.36
2022-11-26T10:10:48.574Z,43.49
2022-11-26T10:13:22.863Z,46.78
2022-11-26T10:15:50.677Z,47.30
2022-11-26T10:18:40.887Z,47.28
2022-11-26T10:21:18.174Z,42.75
2022-11-26T10:23:52.519Z,43.64
2022-11-26T10:26:26.171Z,45.86
2022-11-26T10:29:02.580Z,46.01
2022-11-26T10:31:33.685Z,45.37
2022-11-26T10:34:05.132Z,46.02
2022-11-26T10:36:41.700Z,40.77
2022-11-26T10:39:14.351Z,41.63
2022-11-26T10:41:41.415Z,41.46
2022-11-26T10:44:31.565Z,41.30
2022-11-26T10:46:59.774Z,41.93
2022-11-26T10:49:29.934Z,44.70
2022-11-26T10:52:01.565Z,43.53
2022-11-26T10:54:34.099Z,41.41
2022-11-26T10:57:10.109Z,38.56
2022-11-26T10:59:52.483Z,39.36
2022-11-26T11:02:28.513Z,40.63
2022-11-26T11:04:58.072Z,40.96
2022-11-26T11:07:30.852Z,39.86
2022-11-26T11:10:09.970Z,38.82
2022-11-26T11:12:38.566Z,40.29
2022-11-26T11:15:23.273Z,39.55
2022-11-26T11:18:06.778Z,38.77
2022-11-26T11:20:39.163Z,39.80
2022-11-26T11:23:16.913Z,38.09
2022-11-26T11:25:57.735Z,38.52
2022-11-26T11:28:27.250Z,39.96
2022-11-26T11:31:05.204Z,41.64
2022-11-26T11:33:32.891Z,43.31
2022-11-26T11:36:05.854Z,43.06
2022-11-26T11:38:46.943Z,42.88
2022-11-26T11:41:39.782Z,40.87
2022-11-26T11:44:24.222Z,39.72
2022-11-26T11:47:18.130Z,37.85
2022-11-26T11:50:18.835Z,40.17
2022-11-26T11:53:23.361Z,39.65
2022-11-26T11:56:08.234Z,40.10
2022-11-26T11:58:56.480Z,41.17
2022-11-26T12:01:40.469Z,37.42
2022-11-26T12:04:23.528Z,36.86
2022-11-26T12:07:24.705Z,37.91
2022-11-26T12:10:02.745Z,41.66
2022-11-26T12:12:35.344Z,37.92
2022-11-26T12:15:20.171Z,39.97
2022-11-26T12:18:08.884Z,39.14
2022-11-26T12:20:54.017Z,41.47
2022-11-26T12:23:39.117Z,41.36
2022-11-26T12:26:47.168Z,35.58
2022-11-26T12:29:32.845Z,35.57
2022-11-26T12:32:31.112Z,36.66
2022-11-26T12:35:04.339Z,38.51
2022-11-26T12:37:37.117Z,37.43
2022-11-26T12:40:07.220Z,38.91
2022-11-26T12:42:42.297Z,37.09
2022-11-26T12:45:22.107Z,37.89
2022-11-26T12:48:00.940Z,36.35
2022-11-26T12:50:43.276Z,36.59
2022-11-26T12:53:19.328Z,37.84
2022-11-26T12:56:34.046Z,36.84
2022-11-26T12:59:03.923Z,35.76
2022-11-26T13:01:32.141Z,38.31
2022-11-26T13:04:36.039Z,38.24
2022-11-26T13:07:07.668Z,37.19
2022-11-26T13:09:46.806Z,38.63
2022-11-26T13:12:52.336Z,39.35
2022-11-26T13:15:38.809Z,40.16
2022-11-26T13:18:17.358Z,40.29
2022-11-26T13:21:19.051Z,40.74
2022-11-26T13:24:06.263Z,41.06
2022-11-26T13:27:00.873Z,41.91
2022-11-26T13:29:54.939Z,40.83
2022-11-26T13:32:59.050Z,41.37
2022-11-26T13:35:49.720Z,41.19
2022-11-26T13:38:38.279Z,42.06
2022-11-26T13:41:17.197Z,41.58
2022-11-26T13:44:11.586Z,41.88
2022-11-26T13:47:00.449Z,42.19
2022-11-26T13:49:33.692Z,42.16
2022-11-26T13:52:21.939Z,42.87
2022-11-26T13:55:00.841Z,43.28
2022-11-26T13:57:39.565Z,43.96
2022-11-26T14:00:08.424Z,44.43
2022-11-26T14:02:38.763Z,44.76
2022-11-26T14:05:12.887Z,45.28
2022-11-26T14:07:40.487Z,45.47
2022-11-26T14:10:30.414Z,46.86
2022-11-26T14:13:03.273Z,47.17
2022-11-26T14:15:42.532Z,47.98
2022-11-26T14:18:17.717Z,48.67
2022-11-26T14:21:00.688Z,48.19
2022-11-26T14:23:45.907Z,48.92
2022-11-26T14:26:15.739Z,49.46
2022-11-26T14:28:42.676Z,48.90
2022-11-26T14:31:22.869Z,49.68
2022-11-26T14:33:53.989Z,50.24
2022-11-26T14:36:25.694Z,50.13
2022-11-26T14:39:13.639Z,49.20
2022-11-26T14:41:43.470Z,48.55
2022-11-26T14:44:16.655Z,49.38
2022-11-26T14:46:49.227Z,48.52
2022-11-26T14:49:40.729Z,48.64
2022-11-26T14:52:26.867Z,48.96
2022-11-26T14:55:00.611Z,50.07
2022-11-26T14:57:42.147Z,50.53
2022-11-26T15:00:12.127Z,50.11
2022-11-26T15:02:41.003Z,50.39
2022-11-26T15:05:17.400Z,50.30
2022-11-26T15:07:45.763Z,50.49
2022-11-26T15:10:15.521Z,50.06
2022-11-26T15:12:48.242Z,49.81
2022-11-26T15:15:24.275Z,50.13
2022-11-26T15:17:56.818Z,49.68
2022-11-26T15:20:25.302Z,50.17
2022-11-26T15:22:58.666Z,49.86
2022-11-26T15:25:28.524Z,49.95
2022-11-26T15:28:22.862Z,49.58
2022-11-26T15:31:01.662Z,49.57
2022-11-26T15:33:32.003Z,49.86
2022-11-26T15:35:59.351Z,49.28
2022-11-26T15:38:31.380Z,50.01
2022-11-26T15:41:18.922Z,50.36
2022-11-26T15:43:49.307Z,50.73
2022-11-26T15:46:30.164Z,50.70
2022-11-26T15:49:01.083Z,51.13
2022-11-26T15:51:38.211Z,51.20
2022-11-26T15:54:38.338Z,51.48
2022-11-26T15:57:41.134Z,51.71
2022-11-26T16:00:21.596Z,51.54
2022-11-26T16:02:48.636Z,51.74
2022-11-26T16:05:53.491Z,52.13
2022-11-26T16:08:30.452Z,52.45
2022-11-26T16:11:21.304Z,52.48
2022-11-26T16:13:48.175Z,52.58
2022-11-26T16:16:31.649Z,52.88
2022-11-26T16:19:01.072Z,53.51
2022-11-26T16:21:32.216Z,54.00
2022-11-26T16:24:01.936Z,53.90
2022-11-26T16:26:30.078Z,53.52
2022-11-26T16:28:58.265Z,53.51
2022-11-26T16:31:25.536Z,54.19
2022-11-26T16:33:52.859Z,53.94
2022-11-26T16:36:24.492Z,54.40
2022-11-26T16:38:51.957Z,54.39
2022-11-26T16:41:21.738Z,54.58
2022-11-26T16:43:49.608Z,54.05
2022-11-26T16:46:23.765Z,55.16
2022-11-26T16:48:51.250Z,55.54
2022-11-26T16:51:18.543Z,55.64
2022-11-26T16:53:45.835Z,55.58
2022-11-26T16:56:39.062Z,55.34
2022-11-26T16:59:17.295Z,54.91
2022-11-26T17:01:44.268Z,55.10
2022-11-26T17:04:13.643Z,55.29
2022-11-26T17:06:41.368Z,55.55
2022-11-26T17:09:17.096Z,55.48
2022-11-26T17:11:44.396Z,56.02
2022-11-26T17:14:11.908Z,56.11
2022-11-26T17:16:40.891Z,55.75
2022-11-26T17:19:13.384Z,55.56
2022-11-26T17:21:40.369Z,55.75
2022-11-26T17:24:07.590Z,56.15
2022-11-26T17:26:34.718Z,56.07
2022-11-26T17:29:02.255Z,55.99
2022-11-26T17:31:30.084Z,55.81
2022-11-26T17:33:57.236Z,56.14
2022-11-26T17:36:24.627Z,56.04
2022-11-26T17:38:52.099Z,56.31
2022-11-26T17:41:19.236Z,56.13
2022-11-26T17:43:46.236Z,55.93
2022-11-26T17:46:15.979Z,55.86
2022-11-26T17:48:43.195Z,56.23
2022-11-26T17:51:13.236Z,56.27
2022-11-26T17:53:41.103Z,56.29
2022-11-26T17:56:17.406Z,56.39
2022-11-26T17:58:44.650Z,56.29
2022-11-26T18:01:11.743Z,55.76
2022-11-26T18:03:38.583Z,55.88
2022-11-26T18:06:05.630Z,55.89
2022-11-26T18:08:32.830Z,55.79
2022-11-26T18:10:59.828Z,55.95
2022-11-26T18:13:27.700Z,56.01
2022-11-26T18:16:00.171Z,56.22
2022-11-26T18:18:27.309Z,56.05
2022-11-26T18:20:54.412Z,55.90
2022-11-26T18:23:21.568Z,56.28
2022-11-26T18:25:48.540Z,55.82
2022-11-26T18:28:16.875Z,55.67
2022-11-26T18:30:44.893Z,55.85
2022-11-26T18:33:14.088Z,55.97
2022-11-26T18:35:42.551Z,56.29
2022-11-26T18:38:11.587Z,55.71
2022-11-26T18:40:38.905Z,55.81
2022-11-26T18:43:06.312Z,56.18
2022-11-26T18:45:33.203Z,56.29
2022-11-26T18:48:00.545Z,56.45
2022-11-26T18:50:27.656Z,55.88
2022-11-26T18:52:58.475Z,55.81
2022-11-26T18:55:25.523Z,56.35
2022-11-26T18:57:52.661Z,56.94
2022-11-26T19:00:19.831Z,57.23
2022-11-26T19:02:49.497Z,57.63
2022-11-26T19:05:16.446Z,57.48
2022-11-26T19:07:43.527Z,57.52
2022-11-26T19:10:11.247Z,56.79
2022-11-26T19:12:38.236Z,57.17
2022-11-26T19:15:05.621Z,57.30
2022-11-26T19:17:33.183Z,57.35
2022-11-26T19:20:00.102Z,57.17
2022-11-26T19:22:27.151Z,56.86
2022-11-26T19:24:54.173Z,56.81
2022-11-26T19:27:21.135Z,56.77
2022-11-26T19:29:48.080Z,55.77
2022-11-26T19:32:14.973Z,55.62
2022-11-26T19:34:42.515Z,55.75
2022-11-26T19:37:09.667Z,55.14
2022-11-26T19:39:37.620Z,55.29
2022-11-26T19:42:04.831Z,55.48
2022-11-26T19:44:31.828Z,55.34
2022-11-26T19:46:58.663Z,55.35
2022-11-26T19:49:25.782Z,55.59
2022-11-26T19:51:53.345Z,55.24
2022-11-26T19:54:20.430Z,55.38
2022-11-26T19:56:48.571Z,55.42
2022-11-26T19:59:16.622Z,54.98
2022-11-26T20:01:43.599Z,55.06
2022-11-26T20:04:13.937Z,55.32
2022-11-26T20:06:41.021Z,54.68
2022-11-26T20:09:11.095Z,54.59
2022-11-26T20:11:39.744Z,54.61
2022-11-26T20:14:10.845Z,54.57
2022-11-26T20:16:40.177Z,54.60
2022-11-26T20:19:07.839Z,54.66
2022-11-26T20:21:36.551Z,54.96
2022-11-26T20:24:15.470Z,54.82
2022-11-26T20:26:44.274Z,54.37
2022-11-26T20:29:14.168Z,54.23
2022-11-26T20:31:47.552Z,54.43
2022-11-26T20:34:16.327Z,54.64
2022-11-26T20:36:43.595Z,54.10
2022-11-26T20:39:14.352Z,54.43
2022-11-26T20:41:41.815Z,54.72
2022-11-26T20:44:09.984Z,54.02
2022-11-26T20:46:36.989Z,54.24
2022-11-26T20:49:05.387Z,54.77
2022-11-26T20:51:32.607Z,54.87
2022-11-26T20:54:01.490Z,55.09
2022-11-26T20:56:29.374Z,54.90
2022-11-26T20:58:56.467Z,55.38
2022-11-26T21:01:25.789Z,54.83
2022-11-26T21:03:53.431Z,54.14
2022-11-26T21:06:28.957Z,54.53
2022-11-26T21:08:59.574Z,54.51
2022-11-26T21:11:26.621Z,54.68
2022-11-26T21:13:53.576Z,54.94
2022-11-26T21:16:20.526Z,54.97
2022-11-26T21:18:47.526Z,54.90
2022-11-26T21:21:16.437Z,54.62
2022-11-26T21:23:45.157Z,54.56
2022-11-26T21:26:23.733Z,54.27
2022-11-26T21:28:59.008Z,54.33
2022-11-26T21:31:27.870Z,54.38
2022-11-26T21:34:00.977Z,54.68
2022-11-26T21:36:30.072Z,54.96
2022-11-26T21:38:57.384Z,55.07
2022-11-26T21:41:25.401Z,54.88
2022-11-26T21:43:52.541Z,54.72
2022-11-26T21:46:25.306Z,54.88
2022-11-26T21:48:53.890Z,54.93
2022-11-26T21:51:21.400Z,55.27
2022-11-26T21:53:49.809Z,55.59
2022-11-26T21:56:20.304Z,55.46
2022-11-26T21:58:48.085Z,55.82
2022-11-26T22:01:21.061Z,55.91
2022-11-26T22:03:51.934Z,56.14
2022-11-26T22:06:20.432Z,57.21
2022-11-26T22:08:47.832Z,57.02
2022-11-26T22:11:26.850Z,57.47
2022-11-26T22:13:54.467Z,57.69
2022-11-26T22:16:23.576Z,57.60
2022-11-26T22:18:51.309Z,58.84
2022-11-26T22:21:21.572Z,58.83
2022-11-26T22:23:49.733Z,58.58
2022-11-26T22:26:16.925Z,58.21
2022-11-26T22:28:44.248Z,58.63
2022-11-26T22:31:21.180Z,58.60
2022-11-26T22:33:49.299Z,58.55
2022-11-26T22:36:16.668Z,57.90
2022-11-26T22:38:43.812Z,57.94
2022-11-26T22:41:12.956Z,58.01
2022-11-26T22:43:40.918Z,57.63
2022-11-26T22:46:11.711Z,57.59
2022-11-26T22:48:38.839Z,56.84
2022-11-26T22:51:06.030Z,57.04
2022-11-26T22:53:35.763Z,56.99
2022-11-26T22:56:05.945Z,57.25
2022-11-26T22:58:34.444Z,57.31
2022-11-26T23:01:07.352Z,57.29
2022-11-26T23:03:36.578Z,57.21
2022-11-26T23:06:05.944Z,57.40
2022-11-26T23:08:33.027Z,57.42
2022-11-26T23:11:36.848Z,56.49
2022-11-26T23:14:07.249Z,56.40
2022-11-26T23:16:36.200Z,57.06
2022-11-26T23:19:04.368Z,57.26
2022-11-26T23:21:35.158Z,57.46
2022-11-26T23:24:02.273Z,57.50
2022-11-26T23:26:32.843Z,57.80
2022-11-26T23:29:01.507Z,58.22
2022-11-26T23:31:34.195Z,58.20
2022-11-26T23:34:01.351Z,58.64
2022-11-26T23:36:29.916Z,58.74
2022-11-26T23:38:59.129Z,58.65
2022-11-26T23:41:26.342Z,58.61
2022-11-26T23:43:53.402Z,59.23
2022-11-26T23:46:39.169Z,59.02
2022-11-26T23:49:06.181Z,58.65
2022-11-26T23:51:33.601Z,58.69
2022-11-26T23:54:00.535Z,58.88
2022-11-26T23:56:30.365Z,59.23
2022-11-26T23:58:59.885Z,59.63
